Hove, Belgium
Current Conditions -  °F | °C
As of 10:20 PM on Friday 24 Oct 2014 (Local Time) from EBAW Reporting Station
Light Rain Light Rain  
Wind Chill: 54°   Ceiling: 1100
Heat Index: 54°   Visibility: 6mi
Dew Point: 50°   Wind: 9mph
Humidity: 88%   Direction: 200°SSW
Pressure: 30.03"   Gusts: NA
Location:  51.15°N, 4.47°E
Report Text: EBAW 242020Z 20008KT 9999 -RA FEW010 BKN011 12/10 Q1017 TEMPO 4000 RA BKN008
Loading
Personal Weather Stations






























Interactive Weather Map New forecast layout! Learn more

10-Day Weather Forecast

Advertisements
Track Severe Weather on mobile